createdAt,value
2022-08-22T00:03:07.364Z,5.22
2022-08-22T00:04:06.377Z,5.75
2022-08-22T00:07:56.297Z,6.03
2022-08-22T00:25:29.479Z,5.40
2022-08-22T00:35:34.724Z,5.55
2022-08-22T00:39:40.790Z,5.00
2022-08-22T00:42:51.256Z,5.47
2022-08-22T00:56:52.642Z,5.18
2022-08-22T01:21:31.416Z,6.25
2022-08-22T01:28:09.965Z,5.72
2022-08-22T01:31:28.736Z,6.28
2022-08-22T01:42:12.804Z,5.80
2022-08-22T01:45:49.240Z,5.63
2022-08-22T01:48:27.576Z,5.95
2022-08-22T01:51:30.150Z,5.38
2022-08-22T01:54:05.422Z,5.40
2022-08-22T01:57:15.460Z,5.20
2022-08-22T02:00:18.410Z,5.30
2022-08-22T02:03:28.970Z,5.47
2022-08-22T02:06:24.794Z,5.50
2022-08-22T02:09:42.395Z,5.50
2022-08-22T02:12:52.994Z,5.60
2022-08-22T02:16:23.985Z,5.35
2022-08-22T02:19:31.158Z,5.53
2022-08-22T02:22:44.566Z,7.43
2022-08-22T02:26:25.268Z,5.45
2022-08-22T02:29:24.483Z,5.80
2022-08-22T02:32:11.999Z,5.72
2022-08-22T02:34:55.231Z,6.65
2022-08-22T02:37:55.903Z,5.40
2022-08-22T02:42:00.868Z,6.53
2022-08-22T02:58:37.675Z,5.85
2022-08-22T03:01:23.383Z,6.25
2022-08-22T03:04:31.614Z,6.50
2022-08-22T03:11:19.364Z,7.53
2022-08-22T03:15:07.198Z,7.25
2022-08-22T03:18:43.169Z,6.10
2022-08-22T03:25:15.561Z,6.55
2022-08-22T03:29:20.564Z,6.93
2022-08-22T04:03:46.568Z,7.22
2022-08-22T04:31:47.316Z,7.03
2022-08-22T04:42:31.744Z,6.20
2022-08-22T04:49:36.768Z,6.75
2022-08-22T04:56:58.446Z,6.70
2022-08-22T05:02:51.242Z,6.57
2022-08-22T05:05:24.208Z,6.88
2022-08-22T05:08:00.625Z,7.45
2022-08-22T05:10:37.910Z,7.47
2022-08-22T05:13:19.724Z,8.07
2022-08-22T05:15:50.490Z,7.53
2022-08-22T05:18:29.548Z,7.35
2022-08-22T05:21:01.546Z,8.23
2022-08-22T05:23:54.112Z,7.65
2022-08-22T05:26:21.558Z,7.57
2022-08-22T05:28:53.501Z,7.15
2022-08-22T05:32:09.073Z,7.18
2022-08-22T05:34:41.525Z,7.20
2022-08-22T05:37:18.195Z,7.47
2022-08-22T05:39:51.180Z,7.38
2022-08-22T05:42:26.871Z,7.68
2022-08-22T05:44:55.104Z,7.30
2022-08-22T05:47:27.420Z,7.50
2022-08-22T05:50:18.389Z,8.00
2022-08-22T05:53:17.307Z,8.57
2022-08-22T05:56:11.560Z,7.10
2022-08-22T05:58:59.927Z,8.75
2022-08-22T06:02:00.097Z,8.48
2022-08-22T06:04:39.112Z,7.78
2022-08-22T06:07:21.060Z,8.35
2022-08-22T06:09:47.597Z,7.07
2022-08-22T06:12:24.049Z,7.80
2022-08-22T06:15:03.235Z,7.80
2022-08-22T06:17:51.386Z,7.57
2022-08-22T06:20:33.440Z,7.13
2022-08-22T06:23:03.028Z,9.15
2022-08-22T06:25:33.496Z,7.38
2022-08-22T06:28:06.774Z,6.95
2022-08-22T06:30:35.678Z,8.02
2022-08-22T06:33:08.410Z,9.07
2022-08-22T06:36:08.159Z,8.55
2022-08-22T06:38:58.426Z,9.05
2022-08-22T06:41:30.209Z,8.38
2022-08-22T06:43:58.933Z,8.63
2022-08-22T06:46:28.993Z,9.32
2022-08-22T06:49:02.182Z,8.65
2022-08-22T06:51:29.954Z,9.63
2022-08-22T06:54:03.749Z,9.77
2022-08-22T06:56:37.894Z,8.77
2022-08-22T06:59:11.552Z,8.45
2022-08-22T07:01:47.449Z,7.93
2022-08-22T07:04:15.905Z,11.05
2022-08-22T07:06:50.267Z,9.10
2022-08-22T07:09:23.618Z,9.32
2022-08-22T07:11:52.362Z,9.45
2022-08-22T07:14:41.739Z,9.48
2022-08-22T07:17:16.271Z,9.03
2022-08-22T07:20:08.364Z,7.82
2022-08-22T07:22:37.570Z,7.78
2022-08-22T07:25:13.297Z,8.98
2022-08-22T07:27:56.783Z,8.55
2022-08-22T07:30:27.934Z,7.97
2022-08-22T07:33:26.726Z,6.90
2022-08-22T07:35:59.124Z,6.03
2022-08-22T07:38:45.567Z,6.05
2022-08-22T07:41:22.420Z,6.63
2022-08-22T07:43:58.514Z,7.28
2022-08-22T07:46:37.064Z,5.72
2022-08-22T07:49:13.794Z,6.25
2022-08-22T07:51:49.673Z,5.32
2022-08-22T07:54:48.254Z,5.80
2022-08-22T07:57:31.741Z,5.60
2022-08-22T08:00:01.142Z,4.28
2022-08-22T08:02:28.761Z,5.03
2022-08-22T08:04:58.005Z,4.65
2022-08-22T08:07:28.948Z,5.07
2022-08-22T08:10:03.535Z,4.72
2022-08-22T08:12:41.020Z,3.50
2022-08-22T08:15:12.496Z,3.20
2022-08-22T08:17:40.055Z,2.90
2022-08-22T08:20:11.862Z,2.80
2022-08-22T08:22:43.004Z,2.95
2022-08-22T08:25:15.554Z,2.72
2022-08-22T08:28:01.048Z,2.92
2022-08-22T08:30:46.821Z,2.25
2022-08-22T08:33:26.152Z,2.78
2022-08-22T08:36:21.672Z,2.53
2022-08-22T08:39:35.349Z,2.75
2022-08-22T08:42:05.181Z,1.98
2022-08-22T08:44:52.329Z,2.30
2022-08-22T08:47:31.372Z,2.65
2022-08-22T08:50:16.333Z,2.20
2022-08-22T08:53:01.192Z,2.13
2022-08-22T08:56:19.655Z,2.38
2022-08-22T08:59:13.573Z,2.35
2022-08-22T09:02:24.991Z,2.20
2022-08-22T09:04:54.210Z,2.38
2022-08-22T09:08:05.900Z,2.67
2022-08-22T09:10:59.590Z,2.15
2022-08-22T09:14:04.903Z,2.58
2022-08-22T09:16:53.494Z,1.75
2022-08-22T09:19:49.730Z,1.73
2022-08-22T09:23:04.221Z,1.80
2022-08-22T09:26:05.817Z,2.00
2022-08-22T09:29:08.089Z,2.60
2022-08-22T09:31:54.887Z,2.00
2022-08-22T09:34:59.904Z,2.13
2022-08-22T09:37:47.873Z,1.98
2022-08-22T09:43:06.570Z,2.00
2022-08-22T09:45:36.189Z,2.53
2022-08-22T09:48:34.569Z,2.05
2022-08-22T09:51:33.169Z,1.63
2022-08-22T09:54:19.519Z,2.07
2022-08-22T09:56:49.130Z,1.92
2022-08-22T09:59:43.847Z,2.13
2022-08-22T10:02:50.323Z,1.98
2022-08-22T10:05:35.255Z,1.92
2022-08-22T10:08:20.006Z,1.60
2022-08-22T10:11:12.781Z,1.50
2022-08-22T10:13:57.317Z,1.80
2022-08-22T10:16:59.048Z,1.65
2022-08-22T10:19:49.471Z,1.85
2022-08-22T10:22:41.307Z,2.00
2022-08-22T10:25:33.563Z,1.73
2022-08-22T10:28:13.038Z,2.03
2022-08-22T10:30:54.884Z,1.85
2022-08-22T10:33:33.523Z,1.70
2022-08-22T10:36:12.063Z,1.55
2022-08-22T10:38:49.133Z,1.50
2022-08-22T10:41:38.560Z,1.63
2022-08-22T10:44:21.479Z,1.48
2022-08-22T10:47:05.360Z,1.52
2022-08-22T10:49:45.648Z,1.75
2022-08-22T10:52:46.895Z,2.17
2022-08-22T10:55:33.052Z,1.67
2022-08-22T10:58:07.571Z,1.80
2022-08-22T11:00:50.148Z,1.90
2022-08-22T11:03:23.325Z,1.75
2022-08-22T11:05:54.294Z,1.90
2022-08-22T11:08:44.394Z,2.08
2022-08-22T11:11:32.480Z,1.70
2022-08-22T11:14:47.712Z,1.60
2022-08-22T11:17:28.806Z,2.25
2022-08-22T11:20:19.678Z,1.80
2022-08-22T11:23:04.412Z,1.77
2022-08-22T11:25:41.328Z,1.60
2022-08-22T11:28:20.508Z,1.50
2022-08-22T11:31:07.154Z,1.80
2022-08-22T11:34:07.705Z,1.58
2022-08-22T11:36:50.671Z,1.50
2022-08-22T11:39:28.434Z,1.55
2022-08-22T11:41:57.875Z,2.10
2022-08-22T11:44:34.814Z,1.60
2022-08-22T11:47:10.907Z,1.35
2022-08-22T11:50:19.805Z,1.70
2022-08-22T11:53:15.624Z,1.92
2022-08-22T11:55:48.518Z,1.40
2022-08-22T11:58:43.924Z,1.70
2022-08-22T12:01:21.083Z,1.75
2022-08-22T12:04:12.943Z,1.35
2022-08-22T12:07:00.010Z,1.70
2022-08-22T12:09:43.686Z,1.35
2022-08-22T12:12:24.334Z,1.30
2022-08-22T12:14:51.118Z,1.30
2022-08-22T12:18:01.030Z,1.52
2022-08-22T12:20:52.678Z,1.63
2022-08-22T12:23:49.476Z,1.88
2022-08-22T12:26:36.411Z,1.20
2022-08-22T12:29:44.738Z,1.25
2022-08-22T12:32:56.329Z,1.55
2022-08-22T12:35:52.834Z,1.50
2022-08-22T12:38:47.483Z,1.30
2022-08-22T12:41:48.162Z,1.45
2022-08-22T12:44:39.878Z,1.30
2022-08-22T12:47:11.779Z,1.92
2022-08-22T12:50:03.857Z,1.35
2022-08-22T12:52:46.116Z,1.45
2022-08-22T12:55:28.005Z,1.52
2022-08-22T12:58:04.911Z,2.03
2022-08-22T13:00:47.270Z,1.30
2022-08-22T13:03:43.525Z,1.38
2022-08-22T13:06:35.100Z,1.40
2022-08-22T13:09:18.692Z,1.20
2022-08-22T13:11:48.944Z,1.50
2022-08-22T13:14:25.994Z,1.73
2022-08-22T13:17:00.053Z,1.35
2022-08-22T13:20:01.968Z,1.52
2022-08-22T13:22:34.832Z,1.20
2022-08-22T13:25:08.629Z,1.23
2022-08-22T13:28:03.373Z,1.10
2022-08-22T13:30:38.792Z,1.30
2022-08-22T13:33:12.896Z,1.50
2022-08-22T13:36:10.839Z,1.40
2022-08-22T13:38:52.569Z,1.38
2022-08-22T13:41:24.989Z,1.35
2022-08-22T13:44:13.539Z,1.50
2022-08-22T13:47:10.845Z,1.23
2022-08-22T13:49:35.968Z,1.40
2022-08-22T13:52:29.401Z,1.00
2022-08-22T13:55:12.537Z,1.58
2022-08-22T13:57:51.697Z,1.30
2022-08-22T14:00:28.527Z,1.92
2022-08-22T14:03:20.100Z,1.00
2022-08-22T14:05:54.558Z,1.17
2022-08-22T14:08:36.853Z,1.20
2022-08-22T14:11:19.745Z,1.75
2022-08-22T14:13:55.588Z,1.50
2022-08-22T14:16:42.808Z,2.47
2022-08-22T14:19:13.408Z,1.50
2022-08-22T14:21:53.477Z,1.52
2022-08-22T14:24:32.999Z,1.52
2022-08-22T14:27:07.570Z,1.40
2022-08-22T14:32:27.633Z,1.30
2022-08-22T14:35:23.139Z,1.40
2022-08-22T14:37:59.689Z,1.60
2022-08-22T14:40:33.624Z,1.65
2022-08-22T14:43:29.694Z,1.35
2022-08-22T14:46:02.218Z,1.45
2022-08-22T14:48:40.742Z,1.60
2022-08-22T14:51:26.202Z,1.50
2022-08-22T14:54:00.570Z,1.60
2022-08-22T14:56:30.760Z,1.55
2022-08-22T14:59:00.898Z,1.40
2022-08-22T15:01:32.742Z,1.40
2022-08-22T15:04:04.609Z,1.15
2022-08-22T15:06:47.596Z,1.40
2022-08-22T15:09:34.723Z,1.77
2022-08-22T15:12:03.997Z,1.10
2022-08-22T15:14:37.490Z,1.45
2022-08-22T15:17:09.464Z,1.25
2022-08-22T15:19:41.066Z,1.30
2022-08-22T15:22:11.323Z,1.30
2022-08-22T15:25:02.474Z,1.00
2022-08-22T15:27:32.698Z,1.00
2022-08-22T15:30:02.970Z,1.40
2022-08-22T15:32:34.943Z,1.42
2022-08-22T15:35:31.874Z,1.75
2022-08-22T15:38:05.536Z,1.10
2022-08-22T15:40:45.870Z,1.00
2022-08-22T15:43:23.626Z,1.30
2022-08-22T15:46:07.369Z,1.60
2022-08-22T15:48:39.014Z,1.35
2022-08-22T15:51:13.411Z,1.27
2022-08-22T15:54:01.485Z,1.50
2022-08-22T15:56:32.491Z,1.58
2022-08-22T15:59:31.254Z,1.40
2022-08-22T16:02:30.452Z,1.80
2022-08-22T16:05:28.839Z,1.55
2022-08-22T16:07:58.103Z,1.27
2022-08-22T16:13:16.835Z,1.58
2022-08-22T16:15:56.555Z,1.20
2022-08-22T16:18:36.885Z,1.30
2022-08-22T16:21:16.603Z,1.25
2022-08-22T16:23:49.659Z,1.15
2022-08-22T16:26:31.076Z,0.90
2022-08-22T16:29:18.019Z,1.45
2022-08-22T16:31:44.765Z,1.30
2022-08-22T16:34:17.358Z,1.83
2022-08-22T16:36:47.131Z,1.40
2022-08-22T16:39:40.903Z,1.58
2022-08-22T16:42:18.226Z,1.92
2022-08-22T16:45:05.132Z,1.63
2022-08-22T16:47:40.064Z,1.45
2022-08-22T16:50:27.192Z,1.38
2022-08-22T16:52:59.667Z,1.90
2022-08-22T16:55:29.269Z,1.40
2022-08-22T17:00:39.024Z,1.52
2022-08-22T17:03:11.692Z,1.50
2022-08-22T17:05:54.791Z,1.60
2022-08-22T17:09:01.408Z,2.50
2022-08-22T17:11:49.642Z,1.40
2022-08-22T17:14:56.050Z,2.90
2022-08-22T17:17:28.948Z,1.90
2022-08-22T17:20:08.251Z,1.45
2022-08-22T17:23:02.455Z,1.73
2022-08-22T17:25:59.047Z,2.13
2022-08-22T17:28:47.423Z,1.77
2022-08-22T17:31:40.546Z,2.00
2022-08-22T17:34:19.171Z,1.80
2022-08-22T17:37:01.024Z,1.58
2022-08-22T17:39:45.717Z,1.90
2022-08-22T17:43:08.364Z,1.40
2022-08-22T17:45:53.161Z,1.80
2022-08-22T17:48:28.542Z,2.20
2022-08-22T17:51:03.962Z,2.10
2022-08-22T17:53:44.968Z,1.83
2022-08-22T17:56:27.935Z,1.58
2022-08-22T17:59:09.023Z,1.77
2022-08-22T18:01:49.069Z,1.73
2022-08-22T18:04:57.378Z,1.70
2022-08-22T18:07:43.011Z,1.85
2022-08-22T18:10:18.040Z,1.90
2022-08-22T18:12:53.631Z,2.00
2022-08-22T18:15:28.394Z,2.58
2022-08-22T18:18:07.521Z,1.73
2022-08-22T18:21:02.567Z,1.80
2022-08-22T18:23:47.506Z,2.28
2022-08-22T18:26:24.014Z,1.95
2022-08-22T18:29:17.096Z,1.67
2022-08-22T18:32:11.075Z,2.05
2022-08-22T18:34:50.020Z,2.30
2022-08-22T18:37:24.419Z,1.88
2022-08-22T18:39:59.848Z,1.92
2022-08-22T18:42:35.263Z,2.20
2022-08-22T18:45:03.026Z,2.95
2022-08-22T18:47:33.543Z,2.42
2022-08-22T18:50:32.291Z,2.20
2022-08-22T18:52:59.497Z,1.95
2022-08-22T18:55:56.084Z,1.85
2022-08-22T18:58:54.218Z,2.08
2022-08-22T19:01:52.047Z,2.20
2022-08-22T19:04:24.669Z,1.65
2022-08-22T19:07:25.390Z,1.77
2022-08-22T19:10:36.851Z,2.08
2022-08-22T19:13:09.153Z,1.80
2022-08-22T19:16:06.761Z,1.80
2022-08-22T19:18:42.531Z,2.60
2022-08-22T19:21:34.699Z,2.13
2022-08-22T19:24:10.753Z,1.98
2022-08-22T19:27:05.616Z,1.70
2022-08-22T19:29:32.051Z,2.30
2022-08-22T19:32:12.988Z,2.63
2022-08-22T19:34:46.967Z,2.20
2022-08-22T19:37:30.786Z,2.50
2022-08-22T19:40:08.966Z,1.70
2022-08-22T19:42:38.199Z,2.17
2022-08-22T19:45:22.312Z,2.05
2022-08-22T19:48:00.345Z,2.47
2022-08-22T19:50:42.354Z,1.98
2022-08-22T19:53:39.746Z,2.17
2022-08-22T19:56:22.396Z,2.10
2022-08-22T19:59:16.561Z,2.08
2022-08-22T20:01:51.166Z,2.58
2022-08-22T20:04:23.826Z,2.00
2022-08-22T20:07:37.862Z,2.63
2022-08-22T20:10:41.159Z,2.38
2022-08-22T20:13:18.429Z,2.63
2022-08-22T20:16:05.940Z,2.20
2022-08-22T20:19:09.639Z,2.45
2022-08-22T20:21:49.111Z,2.30
2022-08-22T20:24:15.548Z,2.63
2022-08-22T20:27:10.124Z,2.58
2022-08-22T20:29:36.739Z,1.92
2022-08-22T20:32:06.084Z,2.50
2022-08-22T20:34:37.247Z,2.33
2022-08-22T20:37:29.028Z,2.38
2022-08-22T20:40:32.284Z,2.33
2022-08-22T20:43:02.675Z,2.95
2022-08-22T20:45:43.624Z,2.60
2022-08-22T20:48:11.088Z,2.25
2022-08-22T20:50:37.803Z,2.65
2022-08-22T20:53:15.166Z,2.45
2022-08-22T20:55:56.501Z,2.80
2022-08-22T20:58:26.157Z,2.55
2022-08-22T21:00:56.505Z,2.42
2022-08-22T21:03:45.798Z,2.65
2022-08-22T21:06:20.472Z,2.30
2022-08-22T21:09:11.814Z,2.45
2022-08-22T21:11:40.898Z,2.78
2022-08-22T21:14:25.646Z,3.75
2022-08-22T21:16:53.079Z,2.78
2022-08-22T21:19:24.888Z,2.50
2022-08-22T21:21:51.586Z,2.72
2022-08-22T21:24:18.602Z,2.65
2022-08-22T21:26:45.038Z,2.90
2022-08-22T21:29:14.456Z,2.92
2022-08-22T21:32:04.474Z,3.00
2022-08-22T21:37:08.378Z,2.67
2022-08-22T21:39:37.608Z,3.65
2022-08-22T21:42:03.954Z,3.80
2022-08-22T21:44:54.234Z,3.42
2022-08-22T21:47:31.274Z,2.63
2022-08-22T21:50:13.426Z,3.17
2022-08-22T21:52:53.452Z,3.00
2022-08-22T21:55:27.322Z,3.45
2022-08-22T21:58:35.097Z,3.83
2022-08-22T22:01:24.990Z,3.28
2022-08-22T22:03:54.541Z,3.00
2022-08-22T22:06:21.018Z,3.17
2022-08-22T22:08:47.511Z,3.35
2022-08-22T22:11:15.399Z,3.45
2022-08-22T22:13:42.798Z,3.08
2022-08-22T22:16:12.006Z,3.88
2022-08-22T22:18:39.309Z,2.60
2022-08-22T22:21:05.869Z,3.22
2022-08-22T22:23:32.465Z,3.25
2022-08-22T22:26:02.380Z,3.03
2022-08-22T22:28:34.754Z,3.63
2022-08-22T22:31:01.339Z,3.15
2022-08-22T22:33:31.721Z,3.38
2022-08-22T22:36:03.778Z,3.78
2022-08-22T22:38:30.252Z,3.50
2022-08-22T22:40:56.750Z,3.90
2022-08-22T22:43:23.812Z,3.45
2022-08-22T22:45:50.596Z,3.42
2022-08-22T22:48:24.338Z,3.72
2022-08-22T22:50:54.669Z,3.60
2022-08-22T22:53:33.827Z,3.25
2022-08-22T22:56:06.653Z,3.63
2022-08-22T22:58:37.583Z,3.30
2022-08-22T23:01:24.983Z,4.35
2022-08-22T23:04:03.248Z,3.60
2022-08-22T23:06:33.015Z,3.60
2022-08-22T23:08:59.644Z,3.88
2022-08-22T23:11:30.375Z,4.10
2022-08-22T23:13:57.336Z,4.40
2022-08-22T23:16:27.131Z,3.90
2022-08-22T23:18:54.075Z,3.70
2022-08-22T23:21:26.389Z,4.28
2022-08-22T23:23:55.620Z,3.50
2022-08-22T23:26:22.282Z,3.80
2022-08-22T23:28:49.097Z,4.05
2022-08-22T23:31:28.838Z,4.30
2022-08-22T23:33:56.080Z,4.32
2022-08-22T23:36:23.658Z,4.25
2022-08-22T23:38:51.875Z,5.28
2022-08-22T23:41:19.409Z,4.55
2022-08-22T23:43:49.531Z,3.97
2022-08-22T23:46:20.447Z,4.28
2022-08-22T23:48:51.135Z,4.55
2022-08-22T23:51:23.145Z,4.70
2022-08-22T23:53:50.124Z,4.97
2022-08-22T23:56:26.679Z,4.03
2022-08-22T23:58:53.571Z,3.80
